Flight Track Log - Related Links

Times and Time Zones

All times are in EDT time to prevent confusion due to time zone crossing. See the SKW6241 flight status page for this flight to view local times or setup timezone preferences in your user account.

Time Position Orientation Groundspeed Altitude Reporting Facility
EDT Latitude Longitude Course Direction KTS MPH feet Rate Location/Type
Wed 05:15:20 PM 37.6333 -122.3500 69° East 169 194 1,000  Level Northern Cal TRACON
Wed 05:16:20 PM 37.6833 -122.3000 38° Northeast 205 236 2,800 2,124 Climbing Northern Cal TRACON
Wed 05:17:13 PM 37.7122 -122.2561 50° Northeast 218 251 5,000 2,316 Climbing Oakland Center
Wed 05:18:00 PM 37.6497 -122.2513 72° East  Level FlightAware Approximate
Wed 05:18:14 PM 37.7436 -122.1775 63° Northeast 254 292 7,200  Level Oakland Center
Wed 05:19:00 PM 37.7014 -122.0958 67° East  Level FlightAware Approximate
Wed 05:19:16 PM 37.7689 -122.0917 70° East 259 298 9,400  Level Oakland Center
Wed 05:20:00 PM 37.7517 -121.9390 69° East  Level FlightAware Approximate
Wed 05:20:17 PM 37.7953 -121.9956 71° East 281 323 10,800  Level Oakland Center
Wed 05:21:19 PM 37.8272 -121.8867 70° East 320 368 12,600 1,756 Climbing Oakland Center
Wed 05:22:20 PM 37.8597 -121.7742 70° East 341 392 14,400 1,951 Climbing Oakland Center
Wed 05:23:22 PM 37.8992 -121.6328 70° East 354 407 16,600 1,854 Climbing Oakland Center
Wed 05:24:23 PM 37.9194 -121.5053 79° East 369 425 18,200 1,180 Climbing Oakland Center
Wed 05:25:24 PM 37.9417 -121.3689 78° East 383 441 19,000 390 Climbing Oakland Center
Wed 05:26:26 PM 37.9644 -121.2303 78° East 399 459 19,000 976 Level Oakland Center
Wed 05:27:27 PM 37.9864 -121.0897 79° East 408 470 21,000 1,317 Climbing Oakland Center
Wed 05:28:29 PM 38.0083 -120.9467 79° East 417 480 21,700 927 Climbing Oakland Center
Wed 05:29:30 PM 38.0325 -120.7992 78° East 429 494 22,900 1,220 Climbing Oakland Center
Wed 05:30:32 PM 38.0553 -120.6494 79° East 435 501 24,200 1,463 Climbing Oakland Center
Wed 05:31:33 PM 38.0833 -120.4703 79° East 434 499 25,900 1,268 Climbing Oakland Center
Wed 05:32:35 PM 38.1056 -120.3178 79° East 440 506 26,800 1,171 Climbing Oakland Center
Wed 05:33:36 PM 38.1289 -120.1661 79° East 440 506 28,300 1,366 Climbing Oakland Center
Wed 05:34:38 PM 38.1544 -120.0161 78° East 437 503 29,600 1,317 Climbing Oakland Center
Wed 05:35:39 PM 38.1739 -119.8681 80° East 430 495 31,000 878 Climbing Oakland Center
Wed 05:36:41 PM 38.1944 -119.7178 80° East 433 498 31,400 439 Climbing Oakland Center
Wed 05:37:42 PM 38.2183 -119.5611 79° East 450 518 31,900 537 Climbing Oakland Center
Wed 05:38:44 PM 38.2428 -119.3881 80° East 460 529 32,500 537 Climbing Oakland Center
Wed 05:39:45 PM 38.2647 -119.2261 80° East 465 535 33,000 488 Climbing Oakland Center
Wed 05:40:47 PM 38.2886 -119.0617 79° East 474 545 33,500 488 Climbing Oakland Center
Wed 05:41:48 PM 38.3114 -118.8958 80° East 478 550 34,000 541 Climbing Oakland Center
Wed 05:42:49 PM 38.3389 -118.6947 80° East 483 556 34,600 488 Climbing Oakland Center
Wed 05:43:51 PM 38.3619 -118.5283 80° East 481 554 35,000 195 Climbing Oakland Center
Wed 05:44:52 PM 38.3836 -118.3600 81° East 483 556 35,000  Level Oakland Center
Wed 05:45:54 PM 38.4064 -118.1900 80° East 488 562 35,000  Level Oakland Center
Wed 05:46:55 PM 38.4283 -118.0228 80° East 483 556 35,000  Level Oakland Center
Wed 05:47:57 PM 38.4489 -117.8564 81° East 477 549 35,000  Level Oakland Center
Wed 05:48:58 PM 38.4700 -117.6942 81° East 466 536 35,000  Level Oakland Center
Wed 05:50:00 PM 38.4911 -117.5342 80° East 456 525 35,000  Level Oakland Center
Wed 05:51:01 PM 38.5103 -117.3722 81° East 456 525 35,000  Level Oakland Center
Wed 05:52:02 PM 38.5169 -117.2061 87° East 467 537 35,000  Level Oakland Center
Wed 05:53:04 PM 38.5122 -117.0353 92° East 477 549 35,000  Level Oakland Center
Wed 05:54:05 PM 38.5064 -116.8297 92° East 478 550 35,000 98 Level Oakland Center
Wed 05:55:07 PM 38.5003 -116.6561 93° East 485 558 35,200 341 Climbing Oakland Center
Wed 05:56:08 PM 38.4944 -116.4814 92° East 488 562 35,700 488 Climbing Salt Lake Center
Wed 05:57:10 PM 38.4886 -116.3072 92° East 491 565 36,200 488 Climbing Oakland Center
Wed 05:58:11 PM 38.4814 -116.1342 93° East 489 563 36,700 387 Climbing Oakland Center
Wed 05:59:14 PM 38.4753 -115.9608 93° East 488 562 37,000 145 Climbing Salt Lake Center
Wed 06:00:15 PM 38.4683 -115.7839 93° East 496 571 37,000  Level Salt Lake Center
Wed 06:01:17 PM 38.4603 -115.6078 93° East 497 572 37,000  Level Salt Lake Center
Wed 06:02:19 PM 38.4539 -115.4333 93° East 493 567 37,000  Level Salt Lake Center
Wed 06:03:21 PM 38.4447 -115.2236 93° East 491 565 37,000  Level Salt Lake Center
Wed 06:04:22 PM 38.4364 -115.0544 94° East 483 556 37,000  Level Salt Lake Center
Wed 06:05:24 PM 38.4286 -114.8850 93° East 480 552 37,000  Level Salt Lake Center
Wed 06:06:26 PM 38.4206 -114.7172 93° East 476 548 37,000  Level Salt Lake Center
Wed 06:07:28 PM 38.4108 -114.5519 94° East 470 541 37,000  Level Salt Lake Center
Wed 06:08:29 PM 38.4025 -114.3872 94° East 468 539 37,000  Level Salt Lake Center
Wed 06:09:31 PM 38.3678 -114.2256 105° East 478 550 37,000  Level Salt Lake Center
Wed 06:10:33 PM 38.3103 -114.0350 111° Southeast 483 556 37,000  Level Salt Lake Center
Wed 06:11:34 PM 38.2619 -113.8758 111° Southeast 481 554 37,000  Level Salt Lake Center
Wed 06:12:36 PM 38.2147 -113.7164 111° Southeast 482 555 37,000  Level Salt Lake Center
Wed 06:13:38 PM 38.1656 -113.5567 111° Southeast 484 557 37,000  Level Salt Lake Center
Wed 06:14:39 PM 38.1161 -113.3986 112° Southeast 484 557 37,000  Level Salt Lake Center
Wed 06:15:41 PM 38.0658 -113.2386 112° Southeast 487 560 37,000  Level Salt Lake Center
Wed 06:16:43 PM 38.0167 -113.0783 111° Southeast 487 560 37,000  Level Salt Lake Center
Wed 06:17:45 PM 37.9661 -112.9167 112° Southeast 490 564 37,000  Level Salt Lake Center
Wed 06:18:46 PM 37.9150 -112.7536 112° Southeast 492 566 37,000  Level Salt Lake Center
Wed 06:19:48 PM 37.8514 -112.5575 112° Southeast 496 571 37,000  Level Salt Lake Center
Wed 06:20:50 PM 37.7994 -112.3933 112° Southeast 498 573 37,000  Level Salt Lake Center
Wed 06:21:51 PM 37.7464 -112.2297 112° Southeast 500 575 37,000  Level Salt Lake Center
Wed 06:22:53 PM 37.6928 -112.0650 112° Southeast 505 581 37,000  Level Salt Lake Center
Wed 06:23:55 PM 37.6400 -111.9006 112° Southeast 505 581 37,000  Level Salt Lake Center
Wed 06:24:54 PM 37.5847 -111.7344 113° Southeast 511 588 37,000  Level Denver Center
Wed 06:25:56 PM 37.5303 -111.5686 112° Southeast 512 589 37,000  Level Denver Center
Wed 06:26:58 PM 37.4769 -111.4033 112° Southeast 511 588 37,000  Level Denver Center
Wed 06:28:00 PM 37.4217 -111.2403 113° Southeast 508 585 37,000  Level Denver Center
Wed 06:29:02 PM 37.3547 -111.0414 113° Southeast 515 593 37,000  Level Denver Center
Wed 06:30:04 PM 37.2994 -110.8761 113° Southeast 514 592 37,000  Level Denver Center
Wed 06:31:06 PM 37.2428 -110.7100 113° Southeast 518 596 37,000  Level Denver Center
Wed 06:32:08 PM 37.1867 -110.5444 113° Southeast 516 594 37,000  Level Denver Center
Wed 06:33:10 PM 37.1294 -110.3794 113° Southeast 517 595 37,000  Level Denver Center
Wed 06:34:12 PM 37.0747 -110.2144 113° Southeast 514 592 37,000  Level Denver Center
Wed 06:35:14 PM 37.0081 -110.0264 114° Southeast 513 590 37,000 48 Level Denver Center
Wed 06:36:16 PM 36.9322 -109.8847 124° Southeast 512 589 37,100  Climbing Denver Center
Wed 06:37:18 PM 36.8394 -109.7222 125° Southeast 513 590 37,000 -48 Descending Denver Center
Wed 06:38:20 PM 36.7597 -109.5842 126° Southeast 511 588 37,000  Level Denver Center
Wed 06:39:22 PM 36.6658 -109.4228 126° Southeast 513 590 37,000  Level Denver Center
Wed 06:40:24 PM 36.5869 -109.2864 126° Southeast 508 585 37,000  Level Denver Center
Wed 06:41:26 PM 36.4944 -109.1269 126° Southeast 508 585 37,000  Level Denver Center
Wed 06:42:28 PM 36.4147 -108.9908 126° Southeast 506 582 37,000  Level Denver Center
Wed 06:43:30 PM 36.3333 -108.8553 127° Southeast 508 585 37,000  Level Denver Center
Wed 06:44:32 PM 36.2400 -108.6936 126° Southeast 508 585 37,000  Level Denver Center
Wed 06:45:34 PM 36.1578 -108.5564 127° Southeast 511 588 37,000  Level Denver Center
Wed 06:46:02 PM 36.1164 -108.4892 127° Southeast 511 588 37,000  Level Albuquerque Center
Wed 06:47:03 PM 36.0367 -108.3550 126° Southeast 506 582 37,000  Level Albuquerque Center
Wed 06:48:05 PM 35.9411 -108.1972 127° Southeast 509 586 37,000  Level Albuquerque Center
Wed 06:49:07 PM 35.8594 -108.0636 127° Southeast 509 586 37,000  Level Albuquerque Center
Wed 06:50:09 PM 35.7669 -107.9094 126° Southeast 503 579 37,000  Level Albuquerque Center
Wed 06:51:10 PM 35.6869 -107.7778 127° Southeast 500 575 37,000  Level Albuquerque Center
Wed 06:52:12 PM 35.5936 -107.6250 127° Southeast 499 574 37,000  Level Albuquerque Center
Wed 06:53:14 PM 35.5142 -107.4969 127° Southeast 495 570 37,000  Level Albuquerque Center
Wed 06:54:15 PM 35.4350 -107.3664 127° Southeast 496 571 37,000  Level Albuquerque Center
Wed 06:55:17 PM 35.3489 -107.2275 127° Southeast 492 566 37,000  Level Albuquerque Center
Wed 06:56:19 PM 35.2633 -107.0886 127° Southeast 492 566 37,000  Level Albuquerque Center
Wed 06:57:20 PM 35.1706 -106.9411 128° Southeast 489 563 37,000  Level Albuquerque Center
Wed 06:58:22 PM 35.0925 -106.8164 127° Southeast 485 558 37,000  Level Albuquerque Center
Wed 06:59:24 PM 35.0114 -106.6931 129° Southeast 485 558 37,000  Level Albuquerque Center
Wed 07:00:25 PM 34.9194 -106.5458 127° Southeast 486 559 37,000  Level Albuquerque Center
Wed 07:01:27 PM 34.8428 -106.4231 127° Southeast 496 571 37,000  Level Albuquerque Center
Wed 07:02:29 PM 34.7608 -106.2950 128° Southeast 485 558 37,000  Level Albuquerque Center
Wed 07:03:30 PM 34.6703 -106.1547 128° Southeast 482 555 37,000  Level Albuquerque Center
Wed 07:04:32 PM 34.5900 -106.0258 127° Southeast 478 550 37,000  Level Albuquerque Center
Wed 07:05:34 PM 34.4936 -105.8778 128° Southeast 476 548 37,000  Level Albuquerque Center
Wed 07:06:35 PM 34.4125 -105.7508 128° Southeast 474 545 37,000  Level Albuquerque Center
Wed 07:07:37 PM 34.3242 -105.6342 132° Southeast 465 535 37,000  Level Albuquerque Center
Wed 07:08:39 PM 34.2269 -105.5344 140° Southeast 456 525 37,000 49 Level Albuquerque Center
Wed 07:09:40 PM 34.1275 -105.4325 140° Southeast 460 529 37,100 49 Climbing Albuquerque Center
Wed 07:10:42 PM 34.0247 -105.3258 139° Southeast 472 543 37,100 -48 Level Albuquerque Center
Wed 07:11:44 PM 33.9081 -105.2058 140° Southeast 493 567 37,000 -49 Descending Albuquerque Center
Wed 07:12:45 PM 33.8000 -105.0947 139° Southeast 476 548 37,000  Level Albuquerque Center
Wed 07:13:47 PM 33.7006 -104.9933 140° Southeast 469 540 37,000  Level Albuquerque Center
Wed 07:14:48 PM 33.6031 -104.8933 139° Southeast 463 533 37,000  Level Albuquerque Center
Wed 07:15:50 PM 33.5172 -104.7808 132° Southeast 458 527 37,000  Level Albuquerque Center
Wed 07:16:51 PM 33.4319 -104.6528 129° Southeast 455 524 37,000  Level Albuquerque Center
Wed 07:17:53 PM 33.3628 -104.5478 128° Southeast 457 526 37,000  Level Albuquerque Center
Wed 07:18:55 PM 33.2853 -104.4306 128° Southeast 453 521 37,000  Level Albuquerque Center
Wed 07:19:56 PM 33.1933 -104.2944 129° Southeast 454 522 37,000  Level Albuquerque Center
Wed 07:20:58 PM 33.1094 -104.1700 129° Southeast 449 517 37,000  Level Albuquerque Center
Wed 07:21:59 PM 33.0308 -104.0506 128° Southeast 456 525 37,000  Level Albuquerque Center
Wed 07:23:01 PM 32.9497 -103.9322 129° Southeast 461 531 37,000  Level Albuquerque Center
Wed 07:24:02 PM 32.8633 -103.8000 128° Southeast 471 542 37,000  Level Albuquerque Center
Wed 07:25:04 PM 32.7939 -103.6936 128° Southeast 468 539 37,000  Level Albuquerque Center
Wed 07:26:05 PM 32.7136 -103.5708 128° Southeast 470 541 37,000  Level Albuquerque Center
Wed 07:27:07 PM 32.6317 -103.4481 128° Southeast 475 547 37,000  Level Albuquerque Center
Wed 07:28:09 PM 32.5325 -103.3003 128° Southeast 477 549 37,000  Level Albuquerque Center
Wed 07:29:10 PM 32.4514 -103.1803 129° Southeast 472 543 37,000  Level Albuquerque Center
Wed 07:30:19 PM 32.3642 -103.0550 129° Southeast 466 536 37,000  Level Fort Worth Center
Wed 07:31:18 PM 32.2742 -102.9217 129° Southeast 466 536 37,000  Level Fort Worth Center
Wed 07:32:18 PM 32.1939 -102.7992 128° Southeast 466 536 37,000  Level Fort Worth Center
Wed 07:33:18 PM 32.1289 -102.7044 129° Southeast 466 536 37,000  Level Fort Worth Center
Wed 07:34:18 PM 32.0347 -102.5642 128° Southeast 466 536 37,000  Level Fort Worth Center
Wed 07:35:18 PM 31.9561 -102.4422 127° Southeast 466 536 37,000  Level Fort Worth Center
Wed 07:36:18 PM 31.8750 -102.3253 129° Southeast 466 536 37,000  Level Fort Worth Center
Wed 07:38:39 PM 31.6286 -102.1706 152° Southeast 453 521 37,000  Level Houston Center
Wed 07:39:40 PM 31.5075 -102.1286 164° South 455 524 37,000  Level Houston Center
Wed 07:40:42 PM 31.3825 -102.0903 165° South 456 525 37,000  Level Houston Center
Wed 07:41:44 PM 31.2547 -102.0544 167° South 460 529 37,000  Level Houston Center
Wed 07:42:46 PM 31.1053 -102.0075 165° South 458 527 37,000  Level Houston Center
Wed 07:43:47 PM 30.9847 -101.9614 162° South 455 524 37,000  Level Houston Center
Wed 07:44:49 PM 30.8633 -101.9158 162° South 456 525 37,000  Level Houston Center
Wed 07:45:51 PM 30.7417 -101.8697 162° South 459 528 37,000  Level Houston Center
Wed 07:46:53 PM 30.6206 -101.8244 162° South 456 525 37,000  Level Houston Center
Wed 07:47:54 PM 30.4989 -101.7778 162° South 458 527 37,000  Level Houston Center
Wed 07:48:56 PM 30.3636 -101.7247 161° South 459 528 37,000  Level Houston Center
Wed 07:49:58 PM 30.2422 -101.6744 160° South 463 533 37,000  Level Houston Center
Wed 07:51:00 PM 30.1442 -101.5761 139° Southeast 468 539 37,000  Level Houston Center
Wed 07:52:01 PM 30.0883 -101.4422 116° Southeast 464 534 37,000  Level Houston Center
Wed 07:53:03 PM 30.0736 -101.2978 97° East 454 522 37,000  Level Houston Center
Wed 07:54:05 PM 30.0594 -101.1506 96° East 461 531 37,000  Level Houston Center
Wed 07:55:06 PM 30.0419 -100.9736 96° East 462 532 37,000  Level Houston Center
Wed 07:56:08 PM 30.0283 -100.8253 96° East 466 536 37,000 -968 Level Houston Center
Wed 07:57:10 PM 30.0142 -100.6744 96° East 473 544 35,000 -2,146 Descending Houston Center
Wed 07:58:11 PM 29.9983 -100.5050 96° East 489 563 32,600 -2,146 Descending Houston Center
Wed 07:59:13 PM 29.9842 -100.3731 97° East 471 542 30,600 -2,226 Descending Houston Center
Wed 08:00:15 PM 29.9675 -100.2061 97° East 457 526 28,000 -2,274 Descending Houston Center
Wed 08:01:17 PM 29.9550 -100.0717 96° East 435 501 25,900 -1,951 Descending Houston Center
Wed 08:02:18 PM 29.9406 -99.9381 97° East 425 489 24,000 -927 Descending Houston Center
Wed 08:03:20 PM 29.9272 -99.8056 97° East 420 483 24,000 -484 Level Houston Center
Wed 08:04:22 PM 29.9128 -99.6772 97° East 411 473 23,000 -1,645 Descending Houston Center
Wed 08:05:24 PM 29.8994 -99.5444 97° East 414 476 20,600 -2,613 Descending Houston Center
Wed 08:06:26 PM 29.8844 -99.3875 96° East 413 475 17,600 -2,807 Descending Houston Center
Wed 08:07:13 PM 29.8700 -99.2794 99° East 415 478 15,500 -2,563 Descending Houston Center
Wed 08:08:02 PM 29.8594 -99.1794 97° East 406 467 13,500 -2,368 Descending Houston Center
Wed 08:08:29 PM 29.8536 -99.1292 98° East 407 468 12,500 -2,557 Descending Houston Center
Wed 08:09:03 PM 29.8442 -99.0536 98° East 401 461 10,900 -2,323 Descending Houston Center
Wed 08:09:31 PM 29.8372 -98.9958 98° East 392 451 10,100 -750 Descending Houston Center
Wed 08:10:15 PM 29.8056 -98.9233 117° Southeast 326 375 10,000 -194 Descending Houston Center
Wed 08:10:33 PM 29.7925 -98.8956 118° Southeast 319 367 9,900 -1,475 Descending Houston Center
Wed 08:11:16 PM 29.7619 -98.8344 120° Southeast 306 352 8,500 -1,839 Descending Houston Center
Wed 08:11:35 PM 29.7494 -98.8075 118° Southeast 316 364 8,000 -1,574 Descending Houston Center
Wed 08:12:17 PM 29.7208 -98.7503 120° Southeast 307 353 6,900 -1,377 Descending Houston Center
Wed 08:12:36 PM 29.7086 -98.7247 119° Southeast 299 344 6,600 -1,444 Descending Houston Center
Wed 08:13:11 PM 29.6878 -98.6844 121° Southeast 246 283 5,600 -2,419 Descending Houston Center
Wed 08:13:38 PM 29.6736 -98.6517 116° Southeast 242 278 4,100 -2,459 Descending Houston Center
Wed 08:14:12 PM 29.6531 -98.6261 133° Southeast 208 239 3,100 -1,065 Descending Houston Center
Wed 08:14:40 PM 29.6344 -98.6039 134° Southeast 206 237 3,000 -109 Descending Houston Center
Wed 08:15:07 PM 29.6178 -98.5847 135° Southeast 190 219 3,000 -484 Level Houston Center
Wed 08:15:42 PM 29.5978 -98.5558 129° Southeast 189 217 2,500 -833 Descending Houston Center
Wed 08:16:19 PM 29.5819 -98.5383 136° Southeast 135 155 2,000 -689 Descending Houston Center
Wed 08:16:43 PM 29.5733 -98.5244 125° Southeast 140 161 1,800 -627 Descending Houston Center
Wed 08:17:26 PM 29.5558 -98.5031 133° Southeast 133 153 1,300 -774 Descending Houston Center
Wed 08:17:45 PM 29.5467 -98.4894 128° Southeast 135 155 1,000 -947 Descending Houston Center

Login

Don't have an account? Register now (free) for customized features, flight alerts, and more!